createdAt,value
2022-11-06T00:00:31.709Z,7.10
2022-11-06T00:03:01.707Z,8.10
2022-11-06T00:05:48.604Z,9.43
2022-11-06T00:08:22.997Z,9.90
2022-11-06T00:10:53.496Z,9.73
2022-11-06T00:13:21.059Z,14.97
2022-11-06T00:15:48.481Z,12.17
2022-11-06T00:18:16.046Z,9.77
2022-11-06T00:20:43.751Z,10.43
2022-11-06T00:23:11.437Z,9.10
2022-11-06T00:25:41.890Z,7.63
2022-11-06T00:28:10.088Z,7.90
2022-11-06T00:30:38.080Z,8.40
2022-11-06T00:33:05.603Z,10.40
2022-11-06T00:35:33.351Z,9.90
2022-11-06T00:38:01.055Z,11.97
2022-11-06T00:40:28.502Z,10.40
2022-11-06T00:42:56.507Z,10.23
2022-11-06T00:45:25.600Z,8.47
2022-11-06T00:47:53.514Z,8.37
2022-11-06T00:50:21.172Z,8.07
2022-11-06T00:52:48.636Z,7.73
2022-11-06T00:55:16.265Z,7.67
2022-11-06T00:57:43.718Z,8.33
2022-11-06T01:00:12.270Z,8.70
2022-11-06T01:02:42.683Z,11.80
2022-11-06T01:05:10.358Z,16.60
2022-11-06T01:07:37.824Z,14.90
2022-11-06T01:10:06.715Z,13.70
2022-11-06T01:12:35.458Z,11.50
2022-11-06T01:15:03.089Z,10.97
2022-11-06T01:17:30.629Z,9.97
2022-11-06T01:19:58.209Z,9.87
2022-11-06T01:22:25.843Z,10.43
2022-11-06T01:24:53.447Z,10.77
2022-11-06T01:27:26.579Z,10.43
2022-11-06T01:29:55.133Z,10.30
2022-11-06T01:32:22.750Z,10.73
2022-11-06T01:34:51.924Z,11.53
2022-11-06T01:37:19.486Z,11.07
2022-11-06T01:39:48.583Z,11.37
2022-11-06T01:42:19.509Z,10.63
2022-11-06T01:45:08.295Z,11.13
2022-11-06T01:47:35.794Z,11.23
2022-11-06T01:50:12.909Z,11.03
2022-11-06T01:52:40.982Z,12.00
2022-11-06T01:55:21.665Z,11.23
2022-11-06T01:57:49.874Z,12.10
2022-11-06T02:00:17.995Z,11.37
2022-11-06T02:02:45.784Z,11.73
2022-11-06T02:05:13.522Z,11.23
2022-11-06T02:07:43.947Z,10.40
2022-11-06T02:10:12.013Z,9.90
2022-11-06T02:13:10.460Z,10.00
2022-11-06T02:16:04.781Z,9.10
2022-11-06T02:18:58.815Z,8.83
2022-11-06T02:21:51.976Z,8.17
2022-11-06T02:25:03.366Z,9.10
2022-11-06T02:27:32.044Z,7.87
2022-11-06T02:30:11.326Z,7.90
2022-11-06T02:33:00.201Z,8.40
2022-11-06T02:35:39.091Z,7.10
2022-11-06T02:38:17.485Z,19.70
2022-11-06T02:40:55.842Z,32.03
2022-11-06T02:43:37.345Z,27.03
2022-11-06T02:46:15.651Z,23.93
2022-11-06T02:48:49.261Z,20.30
2022-11-06T02:51:22.474Z,19.53
2022-11-06T02:53:50.874Z,14.60
2022-11-06T02:56:27.585Z,13.80
2022-11-06T02:59:07.108Z,10.30
2022-11-06T03:01:50.219Z,8.40
2022-11-06T03:04:32.609Z,9.23
2022-11-06T03:07:14.487Z,9.40
2022-11-06T03:09:42.469Z,9.80
2022-11-06T03:12:33.325Z,16.13
2022-11-06T03:15:24.585Z,19.83
2022-11-06T03:18:30.676Z,19.10
2022-11-06T03:21:14.111Z,19.70
2022-11-06T03:23:53.800Z,17.87
2022-11-06T03:26:32.548Z,19.43
2022-11-06T03:29:32.392Z,16.97
2022-11-06T03:32:15.983Z,14.57
2022-11-06T03:34:54.883Z,14.47
2022-11-06T03:37:34.051Z,14.50
2022-11-06T03:40:08.659Z,13.83
2022-11-06T03:42:39.214Z,12.97
2022-11-06T03:45:15.653Z,13.10
2022-11-06T03:47:49.003Z,11.83
2022-11-06T03:50:34.508Z,12.57
2022-11-06T03:53:10.130Z,12.17
2022-11-06T03:55:50.535Z,12.10
2022-11-06T03:58:23.723Z,11.77
2022-11-06T04:00:54.773Z,12.37
2022-11-06T04:03:52.235Z,9.80
2022-11-06T04:06:37.818Z,9.07
2022-11-06T04:09:27.651Z,8.53
2022-11-06T04:12:17.782Z,8.73
2022-11-06T04:14:51.443Z,9.20
2022-11-06T04:17:20.901Z,8.90
2022-11-06T04:19:54.533Z,8.67
2022-11-06T04:22:55.928Z,9.20
2022-11-06T04:26:05.783Z,8.83
2022-11-06T04:28:42.367Z,9.03
2022-11-06T04:31:37.739Z,8.83
2022-11-06T04:34:09.738Z,9.33
2022-11-06T04:37:18.305Z,15.20
2022-11-06T04:40:00.963Z,16.70
2022-11-06T04:42:49.231Z,17.07
2022-11-06T04:45:29.539Z,16.50
2022-11-06T04:47:57.775Z,15.83
2022-11-06T04:50:27.800Z,15.77
2022-11-06T04:52:56.634Z,15.77
2022-11-06T04:55:24.279Z,15.70
2022-11-06T04:57:51.938Z,16.37
2022-11-06T05:00:25.214Z,19.23
2022-11-06T05:02:52.698Z,20.10
2022-11-06T05:05:20.148Z,17.63
2022-11-06T05:07:47.644Z,17.43
2022-11-06T05:10:15.143Z,17.13
2022-11-06T05:12:42.553Z,18.83
2022-11-06T05:15:10.416Z,16.60
2022-11-06T05:17:37.881Z,17.20
2022-11-06T05:20:06.597Z,19.83
2022-11-06T05:22:52.280Z,23.23
2022-11-06T05:25:22.806Z,25.70
2022-11-06T05:27:50.354Z,22.43
2022-11-06T05:30:18.520Z,23.00
2022-11-06T05:32:46.036Z,22.33
2022-11-06T05:35:14.598Z,22.17
2022-11-06T05:37:42.158Z,20.53
2022-11-06T05:40:10.531Z,18.07
2022-11-06T05:42:41.878Z,18.27
2022-11-06T05:45:10.993Z,16.53
2022-11-06T05:47:41.804Z,14.93
2022-11-06T05:50:10.995Z,13.57
2022-11-06T05:52:39.058Z,13.47
2022-11-06T05:55:13.193Z,13.00
2022-11-06T05:57:42.338Z,12.23
2022-11-06T06:00:11.549Z,11.53
2022-11-06T06:02:43.985Z,11.43
2022-11-06T06:05:11.749Z,12.10
2022-11-06T06:07:39.185Z,10.97
2022-11-06T06:10:07.733Z,10.30
2022-11-06T06:12:36.197Z,9.33
2022-11-06T06:15:03.798Z,9.77
2022-11-06T06:17:31.287Z,8.83
2022-11-06T06:19:58.999Z,8.53
2022-11-06T06:22:26.442Z,8.37
2022-11-06T06:24:54.144Z,7.60
2022-11-06T06:27:21.734Z,8.27
2022-11-06T06:29:49.183Z,8.40
2022-11-06T06:32:16.624Z,8.47
2022-11-06T06:34:44.171Z,8.60
2022-11-06T06:37:14.366Z,7.80
2022-11-06T06:39:43.958Z,8.20
2022-11-06T06:42:11.583Z,10.83
2022-11-06T06:44:39.159Z,24.20
2022-11-06T06:47:09.402Z,9.50
2022-11-06T06:49:38.157Z,8.83
2022-11-06T06:52:05.817Z,8.50
2022-11-06T06:54:33.286Z,9.47
2022-11-06T06:57:00.766Z,8.70
2022-11-06T06:59:31.803Z,8.60
2022-11-06T07:01:59.308Z,9.33
2022-11-06T07:04:27.053Z,9.53
2022-11-06T07:06:56.448Z,9.97
2022-11-06T07:09:24.260Z,8.97
2022-11-06T07:11:51.765Z,8.93
2022-11-06T07:14:19.240Z,8.77
2022-11-06T07:16:52.540Z,7.47
2022-11-06T07:19:22.320Z,7.57
2022-11-06T07:21:53.688Z,8.17
2022-11-06T07:24:23.995Z,8.80
2022-11-06T07:26:51.505Z,8.27
2022-11-06T07:29:18.900Z,8.57
2022-11-06T07:31:46.302Z,7.83
2022-11-06T07:34:13.938Z,7.97
2022-11-06T07:36:41.421Z,7.53
2022-11-06T07:39:09.042Z,7.37
2022-11-06T07:41:37.119Z,7.27
2022-11-06T07:44:04.918Z,7.80
2022-11-06T07:46:32.394Z,7.30
2022-11-06T07:48:59.946Z,7.90
2022-11-06T07:51:27.404Z,6.90
2022-11-06T07:53:55.001Z,6.97
2022-11-06T07:56:22.416Z,7.67
2022-11-06T07:58:51.224Z,7.03
2022-11-06T08:01:19.445Z,6.77
2022-11-06T08:03:47.409Z,6.73
2022-11-06T08:06:15.105Z,6.40
2022-11-06T08:08:42.573Z,6.93
2022-11-06T08:11:12.006Z,6.47
2022-11-06T08:13:39.908Z,7.20
2022-11-06T08:16:13.696Z,6.77
2022-11-06T08:18:42.005Z,6.90
2022-11-06T08:21:09.811Z,6.93
2022-11-06T08:23:37.726Z,6.50
2022-11-06T08:26:07.863Z,6.90
2022-11-06T08:28:36.384Z,6.20
2022-11-06T08:31:06.304Z,6.80
2022-11-06T08:33:35.938Z,6.60
2022-11-06T08:36:05.623Z,6.70
2022-11-06T08:38:33.507Z,6.50
2022-11-06T08:41:13.139Z,7.00
2022-11-06T08:43:41.754Z,6.23
2022-11-06T08:46:11.918Z,6.30
2022-11-06T08:48:39.673Z,7.07
2022-11-06T08:51:07.747Z,6.33
2022-11-06T08:53:35.544Z,6.37
2022-11-06T08:56:05.208Z,6.60
2022-11-06T08:58:33.008Z,6.63
2022-11-06T09:01:00.620Z,10.73
2022-11-06T09:03:28.377Z,29.30
2022-11-06T09:05:56.733Z,27.20
2022-11-06T09:08:24.637Z,23.53
2022-11-06T09:10:58.185Z,20.90
2022-11-06T09:13:29.136Z,22.17
2022-11-06T09:15:56.799Z,27.20
2022-11-06T09:18:24.934Z,28.03
2022-11-06T09:20:56.765Z,29.20
2022-11-06T09:23:25.388Z,29.50
2022-11-06T09:25:56.137Z,27.63
2022-11-06T09:28:24.033Z,26.33
2022-11-06T09:30:51.606Z,25.60
2022-11-06T09:33:19.693Z,25.07
2022-11-06T09:35:47.747Z,25.53
2022-11-06T09:38:15.939Z,24.50
2022-11-06T09:40:51.956Z,25.87
2022-11-06T09:44:05.544Z,25.47
2022-11-06T09:46:47.915Z,23.70
2022-11-06T09:49:37.979Z,24.00
2022-11-06T09:52:44.702Z,23.40
2022-11-06T09:55:29.687Z,23.90
2022-11-06T09:58:16.136Z,24.50
2022-11-06T10:00:44.646Z,25.03
2022-11-06T10:03:27.147Z,24.27
2022-11-06T10:05:55.023Z,24.03
2022-11-06T10:08:30.662Z,23.07
2022-11-06T10:11:05.802Z,23.50
2022-11-06T10:14:06.310Z,23.20
2022-11-06T10:16:48.382Z,22.70
2022-11-06T10:19:37.832Z,33.00
2022-11-06T10:22:42.514Z,24.17
2022-11-06T10:25:24.967Z,25.60
2022-11-06T10:28:57.097Z,26.40
2022-11-06T10:31:46.775Z,22.10
2022-11-06T10:34:24.310Z,19.63
2022-11-06T10:37:00.684Z,20.23
2022-11-06T10:39:34.504Z,20.60
2022-11-06T10:42:17.949Z,18.80
2022-11-06T10:45:00.933Z,19.53
2022-11-06T10:47:40.028Z,19.20
2022-11-06T10:50:16.028Z,18.73
2022-11-06T10:52:49.094Z,19.67
2022-11-06T10:55:47.707Z,19.30
2022-11-06T10:58:22.486Z,19.10
2022-11-06T11:00:52.556Z,20.40
2022-11-06T11:03:32.435Z,19.87
2022-11-06T11:06:01.793Z,21.17
2022-11-06T11:08:40.437Z,19.13
2022-11-06T11:11:20.102Z,19.33
2022-11-06T11:14:26.149Z,18.70
2022-11-06T11:16:54.207Z,18.20
2022-11-06T11:19:44.431Z,16.80
2022-11-06T11:22:20.725Z,20.73
2022-11-06T11:25:06.060Z,21.70
2022-11-06T11:27:47.736Z,18.33
2022-11-06T11:30:26.700Z,18.97
2022-11-06T11:32:56.035Z,17.53
2022-11-06T11:35:31.977Z,18.57
2022-11-06T11:38:13.689Z,16.47
2022-11-06T11:40:42.733Z,17.13
2022-11-06T11:43:29.903Z,18.53
2022-11-06T11:46:23.590Z,17.70
2022-11-06T11:48:58.577Z,15.40
2022-11-06T11:51:43.881Z,14.63
2022-11-06T11:54:14.583Z,14.97
2022-11-06T11:57:07.487Z,14.10
2022-11-06T11:59:57.788Z,13.60
2022-11-06T12:02:46.374Z,19.50
2022-11-06T12:05:38.861Z,15.43
2022-11-06T12:08:16.287Z,17.30
2022-11-06T12:10:45.116Z,15.73
2022-11-06T12:13:19.919Z,15.80
2022-11-06T12:15:59.437Z,15.87
2022-11-06T12:18:39.151Z,15.83
2022-11-06T12:21:28.135Z,16.80
2022-11-06T12:24:07.331Z,16.63
2022-11-06T12:27:01.161Z,16.83
2022-11-06T12:29:37.824Z,15.27
2022-11-06T12:32:21.644Z,15.63
2022-11-06T12:35:37.069Z,15.00
2022-11-06T12:38:38.469Z,15.87
2022-11-06T12:41:38.094Z,16.47
2022-11-06T12:44:12.886Z,17.20
2022-11-06T12:47:08.609Z,18.10
2022-11-06T12:49:53.829Z,19.47
2022-11-06T12:52:38.512Z,20.50
2022-11-06T12:55:42.693Z,19.97
2022-11-06T12:58:39.987Z,21.13
2022-11-06T13:01:23.110Z,20.30
2022-11-06T13:04:25.215Z,20.63
2022-11-06T13:07:19.861Z,21.50
2022-11-06T13:10:19.764Z,22.57
2022-11-06T13:13:15.936Z,27.00
2022-11-06T13:16:25.506Z,22.37
2022-11-06T13:19:31.477Z,22.00
2022-11-06T13:22:09.912Z,20.07
2022-11-06T13:25:06.303Z,20.70
2022-11-06T13:27:54.268Z,22.03
2022-11-06T13:30:27.134Z,21.60
2022-11-06T13:33:28.823Z,21.97
2022-11-06T13:35:59.140Z,23.67
2022-11-06T13:38:39.875Z,21.30
2022-11-06T13:41:17.848Z,21.07
2022-11-06T13:43:52.459Z,21.40
2022-11-06T13:47:06.035Z,21.83
2022-11-06T13:49:35.997Z,25.70
2022-11-06T13:52:14.761Z,24.43
2022-11-06T13:55:25.830Z,23.97
2022-11-06T13:58:52.408Z,24.03
2022-11-06T14:01:43.634Z,24.03
2022-11-06T14:04:57.152Z,24.43
2022-11-06T14:07:49.166Z,23.23
2022-11-06T14:10:23.772Z,25.13
2022-11-06T14:12:52.091Z,24.67
2022-11-06T14:15:39.899Z,26.83
2022-11-06T14:18:12.552Z,27.67
2022-11-06T14:20:40.716Z,27.13
2022-11-06T14:23:29.528Z,25.33
2022-11-06T14:26:38.450Z,24.50
2022-11-06T14:29:28.309Z,26.57
2022-11-06T14:32:21.412Z,26.50
2022-11-06T14:34:49.890Z,24.60
2022-11-06T14:37:43.100Z,24.77
2022-11-06T14:40:14.036Z,24.93
2022-11-06T14:42:46.215Z,24.13
2022-11-06T14:45:23.019Z,25.40
2022-11-06T14:47:56.565Z,27.17
2022-11-06T14:50:38.433Z,29.93
2022-11-06T14:53:21.995Z,30.67
2022-11-06T14:56:07.896Z,26.07
2022-11-06T14:58:39.677Z,25.10
2022-11-06T15:01:13.855Z,25.13
2022-11-06T15:04:36.404Z,25.27
2022-11-06T15:07:58.732Z,26.13
2022-11-06T15:10:44.932Z,30.30
2022-11-06T15:13:21.131Z,25.40
2022-11-06T15:15:57.866Z,24.70
2022-11-06T15:18:28.168Z,23.03
2022-11-06T15:21:03.554Z,23.60
2022-11-06T15:23:56.606Z,21.83
2022-11-06T15:26:50.730Z,23.00
2022-11-06T15:29:24.885Z,21.67
2022-11-06T15:32:03.791Z,22.47
2022-11-06T15:34:40.491Z,21.63
2022-11-06T15:37:21.882Z,22.37
2022-11-06T15:40:00.199Z,23.67
2022-11-06T15:42:35.177Z,25.97
2022-11-06T15:45:22.473Z,28.90
2022-11-06T15:48:01.366Z,29.10
2022-11-06T15:50:30.083Z,28.57
2022-11-06T15:53:17.628Z,27.93
2022-11-06T15:56:05.593Z,27.50
2022-11-06T15:58:38.030Z,25.80
2022-11-06T16:01:07.892Z,26.67
2022-11-06T16:03:54.719Z,27.10
2022-11-06T16:06:22.562Z,28.40
2022-11-06T16:08:51.423Z,27.97
2022-11-06T16:11:21.646Z,27.50
2022-11-06T16:13:49.981Z,28.17
2022-11-06T16:16:42.655Z,29.10
2022-11-06T16:19:30.740Z,32.03
2022-11-06T16:22:07.581Z,37.83
2022-11-06T16:24:49.648Z,44.33
2022-11-06T16:27:17.948Z,49.13
2022-11-06T16:29:52.808Z,45.23
2022-11-06T16:32:27.300Z,40.77
2022-11-06T16:34:56.240Z,39.20
2022-11-06T16:37:29.922Z,43.83
2022-11-06T16:39:59.552Z,49.97
2022-11-06T16:42:32.993Z,52.57
2022-11-06T16:45:20.755Z,54.80
2022-11-06T16:48:06.891Z,50.10
2022-11-06T16:50:54.909Z,45.53
2022-11-06T16:53:32.415Z,41.30
2022-11-06T16:56:09.322Z,33.60
2022-11-06T16:59:09.778Z,32.87
2022-11-06T17:01:47.008Z,32.83
2022-11-06T17:04:26.765Z,32.00
2022-11-06T17:06:54.915Z,47.97
2022-11-06T17:09:35.742Z,62.93
2022-11-06T17:12:10.460Z,57.17
2022-11-06T17:14:57.877Z,53.43
2022-11-06T17:17:27.217Z,53.53
2022-11-06T17:19:57.056Z,53.73
2022-11-06T17:22:26.346Z,50.17
2022-11-06T17:24:55.064Z,42.30
2022-11-06T17:27:26.920Z,43.50
2022-11-06T17:29:55.785Z,41.20
2022-11-06T17:32:24.781Z,44.33
2022-11-06T17:34:53.177Z,42.13
2022-11-06T17:37:29.783Z,41.10
2022-11-06T17:39:57.327Z,43.07
2022-11-06T17:42:24.820Z,38.10
2022-11-06T17:44:52.289Z,37.43
2022-11-06T17:47:42.669Z,38.17
2022-11-06T17:50:11.095Z,37.40
2022-11-06T17:52:39.029Z,36.50
2022-11-06T17:55:06.990Z,37.87
2022-11-06T17:57:35.819Z,38.50
2022-11-06T18:00:04.084Z,32.00
2022-11-06T18:02:59.671Z,30.87
2022-11-06T18:05:30.354Z,30.30
2022-11-06T18:07:57.927Z,30.33
2022-11-06T18:10:30.427Z,30.27
2022-11-06T18:12:59.469Z,30.50
2022-11-06T18:15:28.319Z,29.63
2022-11-06T18:17:55.872Z,28.63
2022-11-06T18:20:24.970Z,30.37
2022-11-06T18:22:53.718Z,29.83
2022-11-06T18:25:21.264Z,28.90
2022-11-06T18:27:48.721Z,29.03
2022-11-06T18:30:17.427Z,29.80
2022-11-06T18:32:46.120Z,28.33
2022-11-06T18:35:14.204Z,30.50
2022-11-06T18:37:41.681Z,34.83
2022-11-06T18:40:12.801Z,34.07
2022-11-06T18:42:41.906Z,31.70
2022-11-06T18:45:11.011Z,31.97
2022-11-06T18:47:39.035Z,31.60
2022-11-06T18:50:07.631Z,31.37
2022-11-06T18:52:56.486Z,31.93
2022-11-06T18:55:25.122Z,30.63
2022-11-06T18:57:53.025Z,30.73
2022-11-06T19:00:24.495Z,30.30
2022-11-06T19:02:53.443Z,35.50
2022-11-06T19:05:26.298Z,38.77
2022-11-06T19:08:07.823Z,40.57
2022-11-06T19:10:40.659Z,39.47
2022-11-06T19:13:08.252Z,37.60
2022-11-06T19:15:39.935Z,37.37
2022-11-06T19:18:12.458Z,43.73
2022-11-06T19:20:43.964Z,43.57
2022-11-06T19:23:15.685Z,40.63
2022-11-06T19:25:50.869Z,38.30
2022-11-06T19:28:35.619Z,45.30
2022-11-06T19:31:04.692Z,44.83
2022-11-06T19:33:32.683Z,42.10
2022-11-06T19:36:01.891Z,48.77
2022-11-06T19:38:32.337Z,50.20
2022-11-06T19:41:02.652Z,45.30
2022-11-06T19:43:39.521Z,42.47
2022-11-06T19:46:11.231Z,39.80
2022-11-06T19:48:41.095Z,41.43
2022-11-06T19:51:14.035Z,39.33
2022-11-06T19:53:44.430Z,42.60
2022-11-06T19:56:17.615Z,43.27
2022-11-06T19:58:45.519Z,40.23
2022-11-06T20:01:14.011Z,40.27
2022-11-06T20:03:42.738Z,35.57
2022-11-06T20:06:11.024Z,39.10
2022-11-06T20:08:43.532Z,37.00
2022-11-06T20:11:16.576Z,33.20
2022-11-06T20:13:46.333Z,36.33
2022-11-06T20:16:24.786Z,33.70
2022-11-06T20:18:58.051Z,33.50
2022-11-06T20:21:30.013Z,32.83
2022-11-06T20:23:57.958Z,30.97
2022-11-06T20:26:26.305Z,29.93
2022-11-06T20:29:04.141Z,30.73
2022-11-06T20:31:55.791Z,31.17
2022-11-06T20:34:24.720Z,31.13
2022-11-06T20:36:56.444Z,30.97
2022-11-06T20:39:23.998Z,30.77
2022-11-06T20:41:52.715Z,32.10
2022-11-06T20:44:21.236Z,30.87
2022-11-06T20:46:54.106Z,32.93
2022-11-06T20:49:21.782Z,33.47
2022-11-06T20:52:13.352Z,31.87
2022-11-06T20:54:46.666Z,31.10
2022-11-06T20:57:18.475Z,29.30
2022-11-06T20:59:49.483Z,30.17
2022-11-06T21:02:17.810Z,27.97
2022-11-06T21:04:49.494Z,26.80
2022-11-06T21:07:18.730Z,26.67
2022-11-06T21:09:49.444Z,26.67
2022-11-06T21:12:18.194Z,24.97
2022-11-06T21:14:45.595Z,25.37
2022-11-06T21:17:14.134Z,26.33
2022-11-06T21:19:41.618Z,25.93
2022-11-06T21:22:09.088Z,25.17
2022-11-06T21:24:38.159Z,25.23
2022-11-06T21:27:06.176Z,25.97
2022-11-06T21:29:33.779Z,24.80
2022-11-06T21:32:01.753Z,24.43
2022-11-06T21:34:53.361Z,24.00
2022-11-06T21:37:32.860Z,24.37
2022-11-06T21:40:00.865Z,23.10
2022-11-06T21:42:28.340Z,25.00
2022-11-06T21:44:55.831Z,24.90
2022-11-06T21:47:23.340Z,23.30
2022-11-06T21:49:54.013Z,23.40
2022-11-06T21:52:41.486Z,22.33
2022-11-06T21:55:29.629Z,23.37
2022-11-06T21:57:57.485Z,21.87
2022-11-06T22:00:24.987Z,21.73
2022-11-06T22:02:52.515Z,22.63
2022-11-06T22:05:19.991Z,23.10
2022-11-06T22:07:47.475Z,20.20
2022-11-06T22:10:15.594Z,21.13
2022-11-06T22:12:44.587Z,19.83
2022-11-06T22:15:12.154Z,21.50
2022-11-06T22:17:39.783Z,21.23
2022-11-06T22:20:08.320Z,20.43
2022-11-06T22:22:35.742Z,20.63
2022-11-06T22:25:03.745Z,20.23
2022-11-06T22:27:31.323Z,20.30
2022-11-06T22:29:58.783Z,20.07
2022-11-06T22:32:29.274Z,19.70
2022-11-06T22:34:56.730Z,19.27
2022-11-06T22:37:24.195Z,18.97
2022-11-06T22:39:51.922Z,17.83
2022-11-06T22:42:19.392Z,17.83
2022-11-06T22:44:46.897Z,17.07
2022-11-06T22:47:14.420Z,17.47
2022-11-06T22:49:41.923Z,16.93
2022-11-06T22:52:09.357Z,14.10
2022-11-06T22:54:36.965Z,13.67
2022-11-06T22:57:06.911Z,11.90
2022-11-06T22:59:34.561Z,12.20
2022-11-06T23:02:02.098Z,11.53
2022-11-06T23:04:29.607Z,10.43
2022-11-06T23:06:57.054Z,10.27
2022-11-06T23:09:24.633Z,11.37
2022-11-06T23:11:52.142Z,11.90
2022-11-06T23:14:19.602Z,11.67
2022-11-06T23:17:01.007Z,12.27
2022-11-06T23:19:31.019Z,12.33
2022-11-06T23:22:17.741Z,15.60
2022-11-06T23:24:45.585Z,17.37
2022-11-06T23:27:13.282Z,17.47
2022-11-06T23:29:40.941Z,19.57
2022-11-06T23:32:08.466Z,18.60
2022-11-06T23:34:35.937Z,19.07
2022-11-06T23:37:03.536Z,19.20
2022-11-06T23:39:31.023Z,20.73
2022-11-06T23:41:58.468Z,21.00
2022-11-06T23:44:44.691Z,20.07
2022-11-06T23:47:12.144Z,20.50
2022-11-06T23:49:39.636Z,19.80
2022-11-06T23:52:07.063Z,18.97
2022-11-06T23:54:34.579Z,20.43
2022-11-06T23:57:02.067Z,19.37
2022-11-06T23:59:29.489Z,20.33
